Flight Track Log - Related Links

Times and Time Zones

All times are in EDT time to prevent confusion due to time zone crossing. See the N4557N flight status page for this flight to view local times or setup timezone preferences in your user account.


Time Position Orientation Groundspeed Altitude Reporting Facility
EDT Latitude Longitude Course Direction KTS MPH feet Rate Location/Type
Wed 07:38:56 PM 41.8000 -87.7167 90° East 129 148 1,600  Level Chicago TRACON
Wed 07:39:56 PM 41.8000 -87.6667 90° East 143 165 2,400 737 Climbing Chicago TRACON
Wed 07:40:50 PM 41.8167 -87.6333 56° Northeast 154 177 3,000 538 Climbing Chicago TRACON
Wed 07:41:14 PM 41.8242 -87.6164 59° Northeast 152 175 3,100 70 Climbing Chicago Center
Wed 07:42:16 PM 41.8517 -87.5644 55° Northeast 163 188 3,100  Level Chicago Center
Wed 07:43:18 PM 41.8786 -87.5094 57° Northeast 171 197 3,100  Level Chicago Center
Wed 07:43:56 PM 41.9000 -87.4833 42° Northeast 172 198 3,100  Level Chicago TRACON
Wed 07:44:56 PM 41.9500 -87.4667 14° North 169 194 3,100  Level Chicago TRACON
Wed 07:45:56 PM 42.0000 -87.4667 360° North 163 188 3,100 -40 Level Chicago TRACON
Wed 07:47:27 PM 42.0594 -87.4883 345° North 163 188 3,000  Descending Chicago Center
Wed 07:47:56 PM 42.0833 -87.5000 340° North 161 185 3,100 67 Climbing Chicago TRACON
Wed 07:48:56 PM 42.1167 -87.5333 323° Northwest 156 180 3,100  Level Chicago TRACON
Wed 07:49:31 PM 42.1422 -87.5475 338° Northwest 155 178 3,100  Level Chicago Center
Wed 07:50:33 PM 42.1783 -87.5803 326° Northwest 155 178 3,100  Level Chicago Center
Wed 07:51:35 PM 42.2142 -87.6125 326° Northwest 156 180 3,100 97 Level Chicago Center
Wed 07:52:37 PM 42.2508 -87.6458 326° Northwest 158 182 3,300 435 Climbing Chicago Center
Wed 07:53:39 PM 42.2847 -87.6739 329° Northwest 153 176 4,000 435 Climbing Chicago Center
Wed 07:54:41 PM 42.3306 -87.7100 330° Northwest 158 182 4,200 484 Climbing Chicago Center
Wed 07:55:43 PM 42.3650 -87.7417 326° Northwest 153 176 5,000 774 Climbing Chicago Center
Wed 07:56:45 PM 42.3981 -87.7700 328° Northwest 142 163 5,800 726 Climbing Chicago Center
Wed 07:57:47 PM 42.4308 -87.7983 327° Northwest 140 161 6,500 672 Climbing Chicago Center
Wed 07:58:50 PM 42.4636 -87.8247 329° Northwest 139 160 7,200 768 Climbing Chicago Center
Wed 07:59:52 PM 42.5008 -87.8556 329° Northwest 135 155 8,100 432 Climbing Chicago Center
Wed 08:00:55 PM 42.5328 -87.8881 323° Northwest 141 162 8,100  Level Chicago Center
Wed 08:01:57 PM 42.5678 -87.9206 326° Northwest 150 173 8,100  Level Chicago Center
Wed 08:02:59 PM 42.6019 -87.9511 327° Northwest 149 171 8,100  Level Chicago Center
Wed 08:04:01 PM 42.6353 -87.9822 326° Northwest 145 167 8,100  Level Chicago Center
Wed 08:05:03 PM 42.6758 -88.0153 329° Northwest 145 167 8,100 48 Level Chicago Center
Wed 08:06:06 PM 42.7081 -88.0467 324° Northwest 142 163 8,200  Climbing Chicago Center
Wed 08:07:08 PM 42.7414 -88.0750 328° Northwest 141 162 8,100 -48 Descending Chicago Center
Wed 08:08:10 PM 42.7744 -88.1056 326° Northwest 144 166 8,100  Level Chicago Center
Wed 08:09:12 PM 42.8058 -88.1336 327° Northwest 137 158 8,100 48 Level Chicago Center
Wed 08:10:14 PM 42.8450 -88.1683 327° Northwest 143 165 8,200  Climbing Chicago Center
Wed 08:11:16 PM 42.8797 -88.1983 328° Northwest 147 169 8,100 -48 Descending Chicago Center
Wed 08:12:18 PM 42.9133 -88.2311 324° Northwest 149 171 8,100  Level Chicago Center
Wed 08:13:20 PM 42.9489 -88.2608 329° Northwest 148 170 8,100 48 Level Chicago Center
Wed 08:14:22 PM 42.9833 -88.2936 325° Northwest 151 174 8,200 48 Climbing Chicago Center
Wed 08:15:24 PM 43.0231 -88.3317 325° Northwest 149 171 8,200 -194 Level Chicago Center
Wed 08:16:26 PM 43.0575 -88.3642 325° Northwest 150 173 7,800 -581 Descending Chicago Center
Wed 08:17:28 PM 43.0992 -88.3994 328° Northwest 170 196 7,000 -768 Descending Chicago Center
Wed 08:18:31 PM 43.1406 -88.4389 325° Northwest 179 206 6,200 -768 Descending Chicago Center
Wed 08:19:33 PM 43.1858 -88.4719 332° Northwest 182 209 5,400 -823 Descending Chicago Center
Wed 08:20:35 PM 43.2306 -88.5083 329° Northwest 185 213 4,500 -629 Descending Chicago Center
Wed 08:21:37 PM 43.2797 -88.5503 328° Northwest 181 208 4,100 -581 Descending Chicago Center
Wed 08:22:39 PM 43.3139 -88.5900 320° Northwest 165 190 3,300 -484 Descending Chicago Center
Wed 08:23:41 PM 43.3497 -88.6281 322° Northwest 163 188 3,100 -194 Descending Chicago Center
Wed 08:25:00 PM 43.4035 -88.6736 305° West  Level FlightAware Approximate
Wed 08:32:00 PM 43.4167 -88.7000 305° West  Level FlightAware Approximate
Wed 08:33:00 PM 43.4265 -88.7039 305° West  Level Estimated
Wed 08:34:00 PM 43.4265 -88.7039 305° West  Level Estimated
Wed 08:35:00 PM 43.4265 -88.7039 305° West  Level Estimated
Wed 08:36:00 PM 43.4265 -88.7039 305° West  Level Estimated
Wed 08:37:00 PM 43.4265 -88.7039 305° West  Level Estimated
Wed 08:38:00 PM 43.4265 -88.7039 305° West  Level Estimated
Wed 08:39:00 PM 43.4265 -88.7039 305° West  Level Estimated

Login

Don't have an account? Register now (free) for customized features, flight alerts, and more!